Portada
METAR-TAF:

METAR-TAF

Aeroports :

Xiraz, Iran

latitud: 29-32N, longitud: 052-35E, altitud: 1486 m

Observació

L'informe es va fer fa 20 minuts, a les 13:30 UTC
Vent calma
Temperatura 41°C
Humitat 8%
Pressió 1003 hPa
Visibilitat 10 km o més
Núvols disperses a una alçada de 4000 ft

METAR: OISS 141330Z 00000KT 9999 SCT040 41/M00 Q1003 A2963

Hora: 18:20 (13:50 UTC)

Pronòstic

L'informe es va fer fa 2 hores i 40 minuts, a les 11:10 UTC
Pronòstic vàlid del 14 a les 12 UTC al 15 a les 18 UTC
Vent 8 kt del Sud/Sud-Est
Visibilitat: 8000 m
Escasses núvols a una alçada de 4000 ft
Temporalment
l' 14 a les 12 UTC al 14 a les 15 UTC
Vent 12 kt del Oest
Temporalment
l' 15 a les 12 UTC al 15 a les 16 UTC
Vent 12 kt del Oest

TAF: OISS 141110Z 1412/1518 15008KT 8000 FEW040 TEMPO 1412/1415 28012KT TEMPO 1512/1516 26012KT

Observacions i pronòstics meteorològics de més de 4000 aeroports (METAR i TAF).

Les estacions disponibles són els punts grocs i vermells al mapa.

Posi el ratolí al punt desitjat per veure el nom de l'estació.

Feu clic per veure les observacions i els pronòstics meteorològics.

Per canviar el mapa: feu clic els botons verds amb una creu de color negre per apropar; al botó verd amb un guió per allunyar la imatge; o en les fletxes verdes per a mapes adjacents.


METAR-TAF: